Time;durP1;ratioP1;P1;durP2;ratioP2;P2;SDS_P1;SDS_P2;PMS_P1;PMS_P2;Temp;Humidity;BMP_temperature;BMP_pressure;BME280_temperature;BME280_humidity;BME280_pressure;Samples;Min_cycle;Max_cycle;Signal;HPM_P1;HPM_P2
2021/07/31 00:01:44;;;;;;;4.27;1.20;;;;;;;22.23;52.34;100452.47;5012752;28;20291;-57
2021/07/31 00:04:09;;;;;;;2.97;1.08;;;;;;;22.27;52.49;100456.47;5012846;28;20279;-57
2021/07/31 00:06:35;;;;;;;3.87;1.17;;;;;;;22.28;52.61;100463.44;5013321;28;20466;-57
2021/07/31 00:09:00;;;;;;;2.00;0.95;;;;;;;22.26;52.35;100458.28;5012445;28;20295;-58
2021/07/31 00:11:26;;;;;;;2.92;1.13;;;;;;;22.25;52.42;100464.59;5013095;28;20033;-58
2021/07/31 00:13:51;;;;;;;4.35;1.20;;;;;;;22.25;52.27;100467.22;5013183;28;20029;-57
2021/07/31 00:16:17;;;;;;;4.18;1.13;;;;;;;22.26;52.04;100468.91;5012095;28;20021;-58
2021/07/31 00:18:42;;;;;;;3.92;1.40;;;;;;;22.26;52.51;100473.41;5012760;28;20033;-58
2021/07/31 00:21:08;;;;;;;5.17;1.40;;;;;;;22.25;52.49;100474.38;5013271;28;20477;-57
2021/07/31 00:23:33;;;;;;;2.63;1.17;;;;;;;22.23;52.37;100471.88;5012096;28;20267;-57
2021/07/31 00:25:59;;;;;;;4.80;1.20;;;;;;;22.24;52.48;100465.59;5013238;28;20080;-58
2021/07/31 00:28:27;;;;;;;4.37;1.33;;;;;;;22.20;52.36;100463.41;5012703;28;20018;-57
2021/07/31 00:30:52;;;;;;;2.72;1.10;;;;;;;22.23;52.30;100460.44;5012101;28;20057;-57
2021/07/31 00:33:18;;;;;;;3.50;1.02;;;;;;;22.21;52.40;100455.28;5012435;28;20053;-58
2021/07/31 00:35:43;;;;;;;3.63;1.40;;;;;;;22.21;52.42;100455.28;5012887;28;20092;-58
2021/07/31 00:38:11;;;;;;;4.22;1.60;;;;;;;22.22;52.44;100456.13;5012061;28;20022;-57
2021/07/31 00:40:41;;;;;;;3.72;1.13;;;;;;;22.20;52.46;100458.94;5012267;28;20029;-56
2021/07/31 00:43:07;;;;;;;5.65;1.30;;;;;;;22.21;52.53;100450.00;5012570;28;20090;-57
2021/07/31 00:45:34;;;;;;;3.63;1.10;;;;;;;22.19;52.61;100453.78;5011588;28;20022;-57
2021/07/31 00:48:00;;;;;;;4.85;1.40;;;;;;;22.20;52.43;100458.13;5012754;28;20025;-57
2021/07/31 00:50:26;;;;;;;4.05;1.30;;;;;;;22.17;52.30;100459.25;5011461;28;20034;-57
2021/07/31 00:52:55;;;;;;;4.50;1.40;;;;;;;22.19;52.36;100457.28;5011551;28;20041;-58
2021/07/31 00:55:22;;;;;;;3.35;1.20;;;;;;;22.18;52.34;100458.28;5012117;28;20025;-56
2021/07/31 00:57:49;;;;;;;4.22;1.27;;;;;;;22.18;52.59;100458.28;5012610;28;20022;-57
2021/07/31 01:00:17;;;;;;;2.83;1.10;;;;;;;22.19;52.66;100461.75;5011362;28;20029;-56
2021/07/31 01:02:43;;;;;;;3.05;1.20;;;;;;;22.16;52.27;100460.25;5012590;28;20049;-58
2021/07/31 01:05:08;;;;;;;3.13;1.08;;;;;;;22.19;52.35;100459.09;5011644;28;20053;-58
2021/07/31 01:07:35;;;;;;;3.63;1.27;;;;;;;22.17;52.30;100456.59;5012094;28;20424;-57
2021/07/31 01:10:01;;;;;;;4.72;1.27;;;;;;;22.10;52.66;100439.66;5012385;28;20026;-57
2021/07/31 01:12:26;;;;;;;3.45;1.13;;;;;;;22.17;52.48;100459.25;5011573;28;20081;-57
2021/07/31 01:14:52;;;;;;;4.00;1.23;;;;;;;22.14;52.39;100461.41;5012561;28;20050;-58
2021/07/31 01:17:17;;;;;;;3.20;1.27;;;;;;;22.17;52.40;100461.91;5012326;28;20279;-57
2021/07/31 01:19:45;;;;;;;4.43;1.35;;;;;;;22.16;52.25;100464.72;5011776;28;20707;-57
2021/07/31 01:22:10;;;;;;;4.30;1.30;;;;;;;22.16;52.50;100465.56;5012245;28;20496;-57
2021/07/31 01:24:38;;;;;;;3.27;1.20;;;;;;;22.17;52.63;100455.78;5015283;28;20034;-57
2021/07/31 01:27:03;;;;;;;5.93;1.45;;;;;;;22.16;52.28;100451.44;5015558;28;20276;-58
2021/07/31 01:29:32;;;;;;;4.40;1.42;;;;;;;22.16;52.39;100454.09;5016276;28;20048;-57
2021/07/31 01:31:57;;;;;;;5.28;1.30;;;;;;;22.16;52.50;100454.09;5016641;28;20028;-58
2021/07/31 01:34:22;;;;;;;3.85;1.20;;;;;;;22.13;52.51;100452.63;5015665;28;20104;-57
2021/07/31 01:36:48;;;;;;;3.45;1.20;;;;;;;22.14;52.46;100446.31;5016420;28;20405;-58
2021/07/31 01:39:13;;;;;;;4.47;1.60;;;;;;;22.15;52.55;100447.16;5016313;28;20125;-57
2021/07/31 01:41:39;;;;;;;4.50;1.40;;;;;;;22.13;52.50;100438.50;5015052;28;20459;-57
2021/07/31 01:44:04;;;;;;;4.43;1.50;;;;;;;22.12;52.50;100437.69;5016313;28;20026;-57
2021/07/31 01:46:29;;;;;;;4.22;1.30;;;;;;;22.12;52.35;100444.81;5015976;28;20067;-56
2021/07/31 01:48:55;;;;;;;4.20;1.10;;;;;;;22.13;52.16;100446.47;5015181;28;20025;-57
2021/07/31 01:51:20;;;;;;;2.97;1.25;;;;;;;22.12;52.13;100450.13;5015456;28;20080;-56
2021/07/31 01:53:48;;;;;;;4.88;1.23;;;;;;;22.10;52.19;100443.16;5015914;28;20033;-56
2021/07/31 01:56:13;;;;;;;5.28;1.50;;;;;;;22.12;52.44;100450.94;5015107;28;20022;-57
2021/07/31 01:58:38;;;;;;;5.13;1.50;;;;;;;22.12;52.58;100456.25;5015588;28;20374;-57
2021/07/31 02:01:04;;;;;;;4.18;1.33;;;;;;;22.13;52.45;100459.72;5015961;28;20069;-57
2021/07/31 02:03:29;;;;;;;4.25;1.77;;;;;;;22.09;52.81;100452.09;5014598;28;20026;-58
2021/07/31 02:05:55;;;;;;;4.60;1.40;;;;;;;22.12;52.24;100466.06;5015600;28;20080;-58
2021/07/31 02:08:21;;;;;;;4.30;1.50;;;;;;;22.11;52.37;100467.84;5015497;28;20030;-58
2021/07/31 02:10:47;;;;;;;4.22;1.20;;;;;;;22.11;52.65;100454.59;5014971;28;20058;-57
2021/07/31 02:13:12;;;;;;;3.88;1.65;;;;;;;22.09;52.35;100462.69;5015579;28;20496;-57
2021/07/31 02:15:45;;;;;;;4.90;1.40;;;;;;;22.09;52.42;100456.56;5014408;28;20117;-57
2021/07/31 02:18:11;;;;;;;2.92;1.00;;;;;;;22.08;52.46;100445.13;5015669;28;20272;-57
2021/07/31 02:20:37;;;;;;;3.22;1.30;;;;;;;22.09;52.76;100452.09;5015193;28;20026;-57
2021/07/31 02:23:02;;;;;;;3.85;1.35;;;;;;;22.08;52.45;100447.78;5014183;28;20022;-58
2021/07/31 02:25:28;;;;;;;5.28;1.48;;;;;;;22.07;52.42;100448.78;5014721;28;20018;-57
2021/07/31 02:27:53;;;;;;;3.85;1.27;;;;;;;22.07;52.35;100448.78;5015308;28;20018;-57
2021/07/31 02:30:19;;;;;;;4.15;1.25;;;;;;;22.08;52.38;100447.78;5013581;28;20080;-58
2021/07/31 02:32:44;;;;;;;4.25;1.52;;;;;;;22.07;52.48;100443.47;5014552;28;20079;-57
2021/07/31 02:35:10;;;;;;;4.05;1.42;;;;;;;22.08;52.32;100446.97;5013365;28;20054;-56
2021/07/31 02:37:36;;;;;;;3.78;1.40;;;;;;;22.04;52.30;100443.78;5013901;28;20030;-56
2021/07/31 02:40:05;;;;;;;5.55;1.40;;;;;;;22.06;52.54;100455.09;5014651;28;20117;-56
2021/07/31 02:42:31;;;;;;;4.30;1.52;;;;;;;22.04;52.48;100454.41;5014569;28;20462;-58
2021/07/31 02:44:56;;;;;;;4.30;1.50;;;;;;;22.05;52.49;100450.75;5014164;28;20033;-57
2021/07/31 02:47:22;;;;;;;3.80;1.30;;;;;;;22.05;52.54;100441.97;5014521;28;20513;-58
2021/07/31 02:49:50;;;;;;;3.92;1.40;;;;;;;22.03;52.62;100444.78;5014717;28;20030;-57
2021/07/31 02:52:15;;;;;;;3.75;1.40;;;;;;;22.04;52.62;100454.41;5013683;28;20050;-57
2021/07/31 02:54:41;;;;;;;3.92;1.33;;;;;;;22.04;52.39;100443.78;5014647;28;20485;-57
2021/07/31 02:57:06;;;;;;;4.70;1.30;;;;;;;22.04;52.44;100454.41;5014840;28;20025;-58
2021/07/31 02:59:31;;;;;;;4.28;1.40;;;;;;;22.04;52.42;100446.44;5013754;28;20278;-57
2021/07/31 03:01:57;;;;;;;4.82;1.20;;;;;;;22.04;52.26;100443.78;5014673;28;20037;-57
2021/07/31 03:04:22;;;;;;;4.72;1.50;;;;;;;22.04;52.32;100445.63;5014256;28;20018;-57
2021/07/31 03:06:47;;;;;;;4.17;1.40;;;;;;;22.04;52.62;100443.78;5013745;28;20022;-57
2021/07/31 03:09:12;;;;;;;5.75;1.40;;;;;;;22.04;52.57;100437.66;5014253;28;20022;-57
2021/07/31 03:11:38;;;;;;;3.67;1.23;;;;;;;22.05;52.37;100447.28;5013997;28;20088;-57
2021/07/31 03:14:03;;;;;;;6.40;1.50;;;;;;;22.03;52.46;100439.50;5013618;28;20029;-57
2021/07/31 03:16:28;;;;;;;3.92;1.30;;;;;;;22.03;52.64;100444.78;5014006;28;20618;-58
2021/07/31 03:18:54;;;;;;;4.20;1.30;;;;;;;22.03;52.59;100443.94;5013618;28;20029;-58
2021/07/31 03:21:19;;;;;;;4.60;1.50;;;;;;;22.03;52.17;100435.97;5014048;28;20025;-58
2021/07/31 03:23:44;;;;;;;3.63;1.40;;;;;;;22.02;52.52;100437.81;5014026;28;20026;-57
2021/07/31 03:26:09;;;;;;;4.93;1.50;;;;;;;22.00;52.36;100433.66;5014962;28;20059;-57
2021/07/31 03:28:35;;;;;;;3.85;1.38;;;;;;;21.97;52.74;100426.84;5014858;28;20307;-57
2021/07/31 03:31:00;;;;;;;5.30;1.43;;;;;;;22.01;52.54;100437.97;5015296;28;20034;-58
2021/07/31 03:33:25;;;;;;;5.45;1.67;;;;;;;22.02;52.43;100439.66;5014606;28;20048;-57
2021/07/31 03:35:52;;;;;;;5.18;1.58;;;;;;;22.00;52.26;100431.00;5015665;28;20106;-57
2021/07/31 03:38:18;;;;;;;3.80;1.35;;;;;;;22.00;52.34;100434.50;5014924;28;20057;-58
2021/07/31 03:40:44;;;;;;;4.10;1.40;;;;;;;22.00;52.57;100437.16;5015110;28;20445;-58
2021/07/31 03:43:09;;;;;;;2.90;1.20;;;;;;;22.00;52.41;100446.91;5017220;28;20026;-58
2021/07/31 03:45:34;;;;;;;3.30;1.40;;;;;;;21.99;52.46;100450.56;5015449;28;20391;-58
2021/07/31 03:48:00;;;;;;;3.95;1.20;;;;;;;22.00;52.66;100460.19;5013189;28;20035;-58
2021/07/31 03:50:25;;;;;;;3.83;1.25;;;;;;;21.97;52.43;100453.38;5013575;28;20091;-58
2021/07/31 03:52:51;;;;;;;2.88;1.08;;;;;;;21.99;52.54;100472.63;5013537;28;20105;-57
2021/07/31 03:55:16;;;;;;;4.38;1.27;;;;;;;21.97;52.41;100469.31;5011855;28;20033;-57
2021/07/31 03:57:42;;;;;;;3.95;1.23;;;;;;;21.99;52.42;100479.75;5013721;28;20447;-58
2021/07/31 04:00:07;;;;;;;3.57;1.40;;;;;;;21.98;52.60;100478.09;5013447;28;20026;-57
2021/07/31 04:02:33;;;;;;;4.18;1.50;;;;;;;21.96;52.42;100480.91;5012400;28;20367;-57
2021/07/31 04:04:58;;;;;;;4.88;1.45;;;;;;;21.98;52.70;100486.03;5013503;28;20032;-58
2021/07/31 04:07:25;;;;;;;3.88;1.40;;;;;;;21.97;52.74;100490.53;5013084;28;20030;-57
2021/07/31 04:09:50;;;;;;;4.30;1.40;;;;;;;21.97;52.50;100485.22;5012406;28;20022;-57
2021/07/31 04:12:15;;;;;;;4.13;1.40;;;;;;;21.93;52.49;100478.56;5013169;28;20052;-56
2021/07/31 04:14:40;;;;;;;3.57;1.40;;;;;;;21.96;52.49;100488.84;5013459;28;20026;-57
2021/07/31 04:17:08;;;;;;;4.37;1.40;;;;;;;21.95;52.72;100492.50;5012557;28;20057;-57
2021/07/31 04:19:34;;;;;;;3.05;1.20;;;;;;;21.96;52.89;100496.00;5012856;28;20185;-57
2021/07/31 04:21:59;;;;;;;3.75;1.48;;;;;;;21.95;52.84;100481.88;5013156;28;20084;-57
2021/07/31 04:24:25;;;;;;;3.65;1.20;;;;;;;21.95;52.73;100489.00;5012111;28;20095;-57
2021/07/31 04:26:54;;;;;;;4.78;1.33;;;;;;;21.94;52.92;100488.19;5012937;28;20022;-57
2021/07/31 04:29:20;;;;;;;4.30;1.20;;;;;;;21.93;52.97;100490.00;5012167;28;20124;-56
2021/07/31 04:31:46;;;;;;;3.78;1.27;;;;;;;21.95;52.90;100497.78;5012997;28;20482;-57
2021/07/31 04:34:11;;;;;;;4.28;1.40;;;;;;;21.93;53.03;100495.31;5012974;28;20097;-56
2021/07/31 04:36:37;;;;;;;4.95;1.58;;;;;;;21.93;53.00;100500.59;5011786;28;20029;-58
2021/07/31 04:39:04;;;;;;;3.80;1.30;;;;;;;21.93;52.77;100497.13;5012670;28;20057;-57
2021/07/31 04:41:29;;;;;;;3.50;1.30;;;;;;;21.92;53.08;100496.31;5012692;28;20033;-57
2021/07/31 04:43:55;;;;;;;3.10;1.15;;;;;;;21.92;53.10;100498.97;5012181;28;20549;-57
2021/07/31 04:46:26;;;;;;;4.38;1.33;;;;;;;21.92;53.26;100501.63;5012369;28;20054;-56
2021/07/31 04:48:51;;;;;;;3.63;1.48;;;;;;;21.93;53.14;100502.44;5012668;28;20040;-57
2021/07/31 04:51:17;;;;;;;3.97;1.30;;;;;;;21.90;52.89;100500.09;5011275;28;20049;-57
2021/07/31 04:53:42;;;;;;;4.13;1.13;;;;;;;21.92;53.15;100514.03;5012433;28;20279;-57
2021/07/31 04:56:07;;;;;;;3.63;1.30;;;;;;;21.92;53.28;100514.03;5012570;28;20038;-57
2021/07/31 04:58:33;;;;;;;2.30;1.10;;;;;;;21.90;53.46;100505.41;5010725;28;20022;-57
2021/07/31 05:00:59;;;;;;;3.85;1.30;;;;;;;21.91;53.47;100509.72;5012297;28;20040;-58
2021/07/31 05:03:25;;;;;;;3.38;1.35;;;;;;;21.89;53.23;100509.88;5012171;28;20068;-58
2021/07/31 05:05:54;;;;;;;3.25;1.20;;;;;;;21.90;53.33;100511.56;5011479;28;20026;-58
2021/07/31 05:08:20;;;;;;;4.82;1.30;;;;;;;21.90;53.01;100522.19;5012190;28;20018;-56
2021/07/31 05:10:50;;;;;;;4.63;1.55;;;;;;;21.90;53.15;100530.13;5012029;28;20033;-57
2021/07/31 05:13:16;;;;;;;2.78;1.20;;;;;;;21.90;53.46;100522.19;5011093;28;20080;-57
2021/07/31 05:15:50;;;;;;;4.53;1.27;;;;;;;21.83;52.86;100518.47;5012262;28;20446;-57
2021/07/31 05:18:15;;;;;;;3.75;1.27;;;;;;;21.90;53.33;100531.94;5011733;28;20029;-58
2021/07/31 05:20:45;;;;;;;4.35;1.42;;;;;;;21.90;53.19;100534.59;5011512;28;20033;-57
2021/07/31 05:23:14;;;;;;;3.60;1.33;;;;;;;21.89;53.47;100541.72;5012290;28;20022;-57
2021/07/31 05:25:41;;;;;;;5.10;1.30;;;;;;;21.89;53.38;100544.38;5011396;28;20026;-57
2021/07/31 05:28:06;;;;;;;5.10;1.55;;;;;;;21.88;53.11;100539.22;5012057;28;20033;-57
2021/07/31 05:30:32;;;;;;;3.40;1.27;;;;;;;21.88;53.47;100555.16;5011625;28;20029;-57
2021/07/31 05:32:57;;;;;;;2.88;1.20;;;;;;;21.88;53.27;100550.66;5011138;28;20018;-58
2021/07/31 05:35:22;;;;;;;2.95;1.30;;;;;;;21.87;53.28;100554.31;5011864;28;20042;-57
2021/07/31 05:37:47;;;;;;;2.97;1.27;;;;;;;21.87;53.25;100545.50;5012078;28;20057;-58
2021/07/31 05:40:13;;;;;;;2.78;1.38;;;;;;;21.86;53.49;100542.03;5010999;28;20441;-57
2021/07/31 05:42:42;;;;;;;3.58;1.50;;;;;;;21.85;53.55;100536.88;5011835;28;20026;-57
2021/07/31 05:45:08;;;;;;;5.35;1.50;;;;;;;21.86;53.57;100544.69;5012224;28;20414;-57
2021/07/31 05:47:34;;;;;;;3.95;1.50;;;;;;;21.83;53.51;100539.69;5010918;28;20100;-58
2021/07/31 05:50:03;;;;;;;3.47;1.40;;;;;;;21.87;53.46;100537.56;5011925;28;20113;-57
2021/07/31 05:52:28;;;;;;;3.58;1.48;;;;;;;21.85;53.52;100552.81;5010977;28;20068;-57
2021/07/31 05:54:56;;;;;;;4.30;1.17;;;;;;;21.84;53.47;100545.81;5011488;28;20454;-58
2021/07/31 05:57:22;;;;;;;3.72;1.40;;;;;;;21.86;53.46;100559.78;5011696;28;20029;-57
2021/07/31 05:59:50;;;;;;;5.03;1.48;;;;;;;21.85;53.42;100558.09;5011970;28;20022;-58
2021/07/31 06:02:16;;;;;;;2.70;1.30;;;;;;;21.85;53.37;100555.44;5010757;28;20022;-58
2021/07/31 06:04:43;;;;;;;3.15;1.30;;;;;;;21.85;53.53;100558.94;5011751;28;20494;-57
2021/07/31 06:07:10;;;;;;;4.35;1.50;;;;;;;21.86;53.42;100559.78;5011768;28;20022;-58
2021/07/31 06:09:37;;;;;;;3.75;1.30;;;;;;;21.85;53.43;100569.53;5012171;28;20029;-58
2021/07/31 06:12:04;;;;;;;3.88;1.38;;;;;;;21.85;53.52;100564.22;5015571;28;20081;-58
2021/07/31 06:14:32;;;;;;;4.25;1.50;;;;;;;21.84;53.38;100573.19;5015100;28;20100;-59
2021/07/31 06:16:57;;;;;;;2.40;1.10;;;;;;;21.79;53.77;100564.84;5014905;28;20034;-58
2021/07/31 06:19:23;;;;;;;3.97;1.42;;;;;;;21.79;53.88;100574.63;5015142;28;20359;-57
2021/07/31 06:21:48;;;;;;;3.50;1.63;;;;;;;21.77;53.79;100568.66;5014257;28;20432;-57
2021/07/31 06:24:13;;;;;;;4.75;1.50;;;;;;;21.76;53.97;100577.59;5015388;28;20030;-58
2021/07/31 06:26:42;;;;;;;4.47;1.92;;;;;;;21.72;54.00;100577.91;5015032;28;20437;-60
2021/07/31 06:29:07;;;;;;;3.70;1.48;;;;;;;21.72;54.12;100575.25;5014658;28;20152;-58
2021/07/31 06:31:32;;;;;;;4.25;1.80;;;;;;;21.73;54.07;100582.22;5014758;28;20049;-58
2021/07/31 06:33:58;;;;;;;5.43;1.67;;;;;;;21.74;54.34;100583.06;5015029;28;20030;-59
2021/07/31 06:36:24;;;;;;;3.30;1.45;;;;;;;21.76;54.29;100591.69;5014224;28;20030;-58
2021/07/31 06:38:50;;;;;;;3.65;1.63;;;;;;;21.78;54.56;100586.22;5015233;28;20022;-57
2021/07/31 06:41:15;;;;;;;4.43;1.60;;;;;;;21.78;54.69;100588.88;5014567;28;20085;-58
2021/07/31 06:43:46;;;;;;;4.70;1.55;;;;;;;21.80;54.71;100581.63;5014175;28;20022;-58
2021/07/31 06:46:13;;;;;;;4.85;1.80;;;;;;;21.80;54.74;100582.44;5015031;28;20060;-59
2021/07/31 06:48:57;;;;;;;4.40;1.60;;;;;;;21.82;54.54;100590.25;5014639;28;20026;-60
2021/07/31 06:51:33;;;;;;;;;;;;;;;;;;;;;
2021/07/31 06:54:03;;;;;;;3.80;1.50;;;;;;;21.84;54.83;100585.59;5010455;28;20286;-60
2021/07/31 06:56:28;;;;;;;4.55;1.80;;;;;;;21.87;54.64;100586.16;5014235;28;20505;-58
2021/07/31 06:58:53;;;;;;;3.13;1.40;;;;;;;21.88;54.76;100586.97;5013855;28;20165;-58
2021/07/31 07:01:28;;;;;;;4.20;1.63;;;;;;;21.88;54.78;100589.63;5014048;28;20771;-57
2021/07/31 07:03:53;;;;;;;4.78;1.60;;;;;;;21.89;54.63;100589.47;5013564;28;20103;-57
2021/07/31 07:06:19;;;;;;;5.78;2.42;;;;;;;21.91;54.88;100605.25;5013862;28;20022;-58
2021/07/31 07:08:44;;;;;;;5.20;1.65;;;;;;;21.91;54.59;100600.75;5014114;28;20034;-60
2021/07/31 07:11:13;;;;;;;4.43;1.60;;;;;;;21.91;54.69;100608.72;5013820;28;20567;-60
2021/07/31 07:13:41;;;;;;;4.55;1.77;;;;;;;21.93;54.67;100613.88;5014277;28;20026;-57
2021/07/31 07:16:06;;;;;;;4.10;1.50;;;;;;;21.93;54.71;100611.22;5014393;28;20044;-57
2021/07/31 07:18:32;;;;;;;5.75;1.88;;;;;;;21.96;54.77;100610.91;5013279;28;20490;-58
2021/07/31 07:20:57;;;;;;;4.85;1.70;;;;;;;21.95;55.00;100619.84;5013310;28;20026;-60
2021/07/31 07:23:22;;;;;;;6.22;1.92;;;;;;;21.95;54.84;100619.03;5013797;28;20454;-58
2021/07/31 07:25:48;;;;;;;3.70;1.70;;;;;;;21.95;54.94;100619.03;5013726;28;20034;-59
2021/07/31 07:28:16;;;;;;;3.70;1.70;;;;;;;21.98;54.82;100627.50;5014342;28;20668;-58
2021/07/31 07:30:43;;;;;;;4.72;1.90;;;;;;;21.95;54.90;100616.38;5014155;28;20310;-57
2021/07/31 07:33:11;;;;;;;4.45;2.17;;;;;;;21.99;54.89;100634.47;5013563;28;20026;-60
2021/07/31 07:35:36;;;;;;;4.78;1.70;;;;;;;22.01;54.96;100634.31;5014124;28;20017;-58
2021/07/31 07:38:01;;;;;;;5.90;2.00;;;;;;;22.00;54.87;100622.03;5014174;28;20501;-58
2021/07/31 07:40:26;;;;;;;5.25;2.00;;;;;;;21.99;54.88;100631.81;5012851;28;20271;-59
2021/07/31 07:42:52;;;;;;;8.17;1.60;;;;;;;21.99;55.00;100633.66;5013890;28;20068;-58
2021/07/31 07:45:17;;;;;;;4.78;2.00;;;;;;;22.00;54.97;100640.59;5013521;28;20283;-60
2021/07/31 07:47:42;;;;;;;4.50;1.60;;;;;;;21.99;55.22;100633.66;5012993;28;20389;-58
2021/07/31 07:50:08;;;;;;;4.40;1.98;;;;;;;22.01;55.03;100639.63;5013690;28;20061;-59
2021/07/31 07:52:34;;;;;;;6.18;1.83;;;;;;;22.02;55.18;100641.31;5013287;28;20509;-58
2021/07/31 07:54:59;;;;;;;4.50;1.77;;;;;;;22.03;54.94;100635.84;5012605;28;20034;-59
2021/07/31 07:57:34;;;;;;;4.65;1.75;;;;;;;22.08;55.08;100644.16;5020640;28;20092;-59
2021/07/31 08:00:00;;;;;;;4.63;1.83;;;;;;;22.09;55.34;100643.16;5015729;28;20516;-59
2021/07/31 08:02:25;;;;;;;3.75;1.67;;;;;;;22.09;55.13;100644.97;5013126;28;20029;-59
2021/07/31 08:04:50;;;;;;;4.67;1.87;;;;;;;22.12;55.55;100647.31;5013567;28;20381;-58
2021/07/31 08:07:16;;;;;;;4.83;1.50;;;;;;;22.12;55.48;100649.97;5012270;28;20275;-59
2021/07/31 08:09:42;;;;;;;6.53;1.80;;;;;;;22.14;55.29;100650.66;5013568;28;20275;-59
2021/07/31 08:12:08;;;;;;;4.13;1.70;;;;;;;22.17;55.32;100646.88;5013444;28;20619;-58
2021/07/31 08:14:38;;;;;;;6.10;1.70;;;;;;;22.17;55.08;100645.03;5012770;28;20037;-58
2021/07/31 08:17:03;;;;;;;4.63;1.73;;;;;;;22.16;54.97;100648.69;5013883;28;20021;-59
2021/07/31 08:19:31;;;;;;;5.40;1.90;;;;;;;22.13;55.12;100634.88;5013566;28;20604;-60
2021/07/31 08:21:59;;;;;;;3.80;1.50;;;;;;;22.16;54.91;100653.16;5013226;28;20116;-59
2021/07/31 08:24:28;;;;;;;4.97;1.73;;;;;;;22.15;54.95;100654.97;5013652;28;20033;-59
2021/07/31 08:27:13;;;;;;;3.75;1.50;;;;;;;22.18;54.73;100651.19;5012406;28;20124;-61
2021/07/31 08:29:41;;;;;;;4.53;1.63;;;;;;;22.19;54.74;100643.06;5012587;28;20042;-59
2021/07/31 08:32:06;;;;;;;4.00;1.55;;;;;;;22.19;54.74;100642.22;5012938;28;20499;-58
2021/07/31 08:34:34;;;;;;;4.15;1.70;;;;;;;22.20;54.82;100647.38;5013017;28;20022;-57
2021/07/31 08:37:01;;;;;;;5.28;1.70;;;;;;;22.18;54.61;100649.38;5012268;28;20026;-59
2021/07/31 08:39:26;;;;;;;3.80;1.60;;;;;;;22.16;54.58;100648.69;5012567;28;20038;-57
2021/07/31 08:41:52;;;;;;;4.03;1.57;;;;;;;22.17;54.51;100654.81;5012558;28;20034;-59
2021/07/31 08:44:18;;;;;;;3.40;1.38;;;;;;;22.17;54.47;100652.16;5011708;28;20271;-59
2021/07/31 08:46:45;;;;;;;3.70;1.55;;;;;;;22.17;54.72;100663.63;5012652;28;20156;-58
2021/07/31 08:49:13;;;;;;;5.80;1.40;;;;;;;22.16;54.51;100658.47;5012781;28;20080;-58
2021/07/31 08:51:39;;;;;;;3.85;1.45;;;;;;;22.16;54.57;100653.16;5011471;28;20549;-59
2021/07/31 08:54:04;;;;;;;4.97;1.63;;;;;;;22.17;54.43;100652.16;5012505;28;20117;-58
2021/07/31 08:56:30;;;;;;;4.40;1.50;;;;;;;22.15;54.56;100660.28;5011460;28;20024;-58
2021/07/31 08:58:59;;;;;;;3.08;1.38;;;;;;;22.14;54.54;100657.78;5012467;28;20037;-58
2021/07/31 09:01:30;;;;;;;4.22;1.60;;;;;;;22.13;54.44;100664.94;5012003;28;20037;-58
2021/07/31 09:03:56;;;;;;;3.28;1.52;;;;;;;22.14;54.36;100671.06;5011801;28;20036;-60
2021/07/31 09:06:25;;;;;;;3.47;1.55;;;;;;;22.14;54.31;100673.72;5012174;28;20452;-59
2021/07/31 09:08:52;;;;;;;2.85;1.45;;;;;;;22.10;54.21;100671.38;5012357;28;20542;-65
2021/07/31 09:11:17;;;;;;;2.15;1.20;;;;;;;22.10;54.63;100678.50;5011297;28;20026;-59
2021/07/31 09:13:43;;;;;;;4.28;1.48;;;;;;;22.14;54.53;100676.38;5012851;28;20428;-58
2021/07/31 09:16:10;;;;;;;3.90;1.80;;;;;;;22.15;54.58;100686.00;5013292;28;20021;-58
2021/07/31 09:18:42;;;;;;;7.18;1.50;;;;;;;22.15;54.39;100686.81;5011898;28;20026;-59
2021/07/31 09:21:17;;;;;;;5.40;1.40;;;;;;;22.16;54.38;100690.31;5012279;28;20087;-59
2021/07/31 09:23:50;;;;;;;4.03;1.30;;;;;;;22.18;54.64;100689.19;5012562;28;20038;-59
2021/07/31 09:26:23;;;;;;;5.07;1.40;;;;;;;22.20;54.45;100695.16;5011189;28;20026;-58
2021/07/31 09:29:06;;;;;;;3.28;1.40;;;;;;;22.21;54.56;100696.00;5012147;28;20373;-60
2021/07/31 09:31:32;;;;;;;3.50;1.55;;;;;;;22.22;54.61;100695.84;5011636;28;20026;-58
2021/07/31 09:34:02;;;;;;;3.55;1.70;;;;;;;22.23;54.44;100705.47;5012335;28;20033;-58
2021/07/31 09:36:41;;;;;;;3.28;1.55;;;;;;;22.23;54.52;100689.53;5012074;28;20092;-59
2021/07/31 09:39:08;;;;;;;3.25;1.50;;;;;;;22.25;54.35;100700.81;5011635;28;20022;-60
2021/07/31 09:41:38;;;;;;;3.75;1.42;;;;;;;22.25;54.66;100700.00;5011410;28;20045;-59
2021/07/31 09:44:16;;;;;;;4.25;1.58;;;;;;;22.25;54.74;100711.44;5013058;28;20263;-60
2021/07/31 09:46:53;;;;;;;2.97;1.45;;;;;;;22.25;54.60;100710.63;5015318;28;20108;-60
2021/07/31 09:49:21;;;;;;;4.30;1.67;;;;;;;22.23;54.58;100709.94;5015672;28;20489;-60
2021/07/31 09:51:51;;;;;;;5.22;1.88;;;;;;;22.26;54.55;100717.59;5016021;28;20041;-60
2021/07/31 09:54:18;;;;;;;5.10;1.70;;;;;;;22.23;54.84;100732.00;5014996;28;20033;-62
2021/07/31 09:56:52;;;;;;;4.38;1.83;;;;;;;22.21;55.08;100726.03;5015996;28;20377;-59
2021/07/31 09:59:20;;;;;;;3.50;1.58;;;;;;;22.23;54.71;100725.88;5014914;28;20056;-61
2021/07/31 10:01:48;;;;;;;4.70;1.70;;;;;;;22.23;54.75;100729.34;5014896;28;20157;-61
2021/07/31 10:04:15;;;;;;;3.85;2.00;;;;;;;22.24;54.65;100725.72;5015572;28;20022;-59
2021/07/31 10:06:41;;;;;;;3.33;1.75;;;;;;;22.25;54.95;100739.81;5015390;28;20544;-59
2021/07/31 10:09:07;;;;;;;2.67;1.55;;;;;;;22.23;54.92;100739.16;5015332;28;20022;-59
2021/07/31 10:11:35;;;;;;;3.42;1.73;;;;;;;22.22;55.11;100740.97;5015341;28;20072;-60
2021/07/31 10:14:01;;;;;;;3.40;1.40;;;;;;;22.24;55.00;100746.13;5014893;28;20068;-60
2021/07/31 10:16:28;;;;;;;3.95;1.90;;;;;;;22.24;54.81;100740.81;5015059;28;20029;-61
2021/07/31 10:18:54;;;;;;;3.75;1.77;;;;;;;22.24;54.90;100751.44;5015437;28;20556;-60
2021/07/31 10:21:19;;;;;;;3.17;1.42;;;;;;;22.25;55.22;100766.34;5014585;28;20417;-59
2021/07/31 10:24:14;;;;;;;3.28;1.80;;;;;;;22.25;55.19;100777.81;5015727;28;20017;-60
2021/07/31 10:26:40;;;;;;;;;;;;;;;22.25;55.10;100776.97;5002913;28;20367;-59
2021/07/31 10:29:27;;;;;;;3.60;1.80;;;;;;;22.25;55.12;100782.28;5014707;28;20012;-57
2021/07/31 10:31:55;;;;;;;3.58;1.60;;;;;;;22.25;55.21;100775.16;5015328;28;20030;-60
2021/07/31 10:34:48;;;;;;;4.20;1.92;;;;;;;22.27;55.16;100782.97;5014909;28;20030;-59
2021/07/31 10:37:40;;;;;;;3.17;1.80;;;;;;;22.26;55.19;100778.66;5014624;28;20575;-58
2021/07/31 10:40:11;;;;;;;4.45;1.80;;;;;;;22.25;55.63;100777.81;5015202;28;20129;-59
2021/07/31 10:42:52;;;;;;;5.80;1.80;;;;;;;22.27;55.44;100781.16;5014120;28;20037;-59
2021/07/31 10:45:24;;;;;;;3.95;1.65;;;;;;;22.28;55.17;100784.63;5014451;28;20545;-59
2021/07/31 10:48:22;;;;;;;4.38;1.90;;;;;;;22.28;56.00;100780.16;5014871;28;20030;-58
2021/07/31 10:50:47;;;;;;;4.35;2.03;;;;;;;22.29;55.64;100786.31;5013994;28;20118;-58
2021/07/31 10:53:17;;;;;;;5.10;2.40;;;;;;;22.33;55.81;100786.88;5014781;28;20129;-59
2021/07/31 10:55:42;;;;;;;5.72;2.40;;;;;;;22.34;55.80;100781.41;5013744;28;20061;-59
2021/07/31 10:58:08;;;;;;;5.63;2.43;;;;;;;22.37;56.23;100778.44;5013974;28;20061;-60
2021/07/31 11:00:38;;;;;;;6.38;2.33;;;;;;;22.40;56.20;100786.09;5014290;28;20932;-58
2021/07/31 11:03:17;;;;;;;4.35;2.17;;;;;;;22.41;56.23;100778.97;5013959;28;20108;-59
2021/07/31 11:05:54;;;;;;;5.72;3.00;;;;;;;22.40;56.19;100779.97;5014893;28;20026;-59
2021/07/31 11:08:27;;;;;;;5.45;2.20;;;;;;;22.39;56.06;100787.06;5014189;28;20033;-59
2021/07/31 11:11:17;;;;;;;4.30;2.17;;;;;;;22.42;56.21;100778.81;5014283;28;20026;-59
2021/07/31 11:13:45;;;;;;;3.60;2.03;;;;;;;22.42;56.26;100776.16;5014493;28;20279;-59
2021/07/31 11:16:13;;;;;;;4.85;2.20;;;;;;;22.43;56.38;100779.63;5014450;28;20022;-59
2021/07/31 11:18:44;;;;;;;4.18;1.90;;;;;;;22.44;56.30;100781.31;5013202;28;20050;-59
2021/07/31 11:21:26;;;;;;;4.15;2.10;;;;;;;22.44;56.00;100784.78;5014297;28;20069;-60
2021/07/31 11:23:55;;;;;;;4.05;1.90;;;;;;;22.44;56.09;100787.44;5014412;28;20034;-59
2021/07/31 11:26:54;;;;;;;3.08;1.80;;;;;;;22.48;56.01;100779.16;5013345;28;20096;-60
2021/07/31 11:29:25;;;;;;;2.92;1.70;;;;;;;22.45;55.98;100775.03;4981505;28;20037;-59